Time;durP1;ratioP1;P1;durP2;ratioP2;P2;SDS_P1;SDS_P2;PMS_P1;PMS_P2;Temp;Humidity;BMP_temperature;BMP_pressure;BME280_temperature;BME280_humidity;BME280_pressure;Samples;Min_cycle;Max_cycle;Signal;HPM_P1;HPM_P2
2023/09/22 00:02:09;;;;;;;3.50;1.00;;;;;;;;;;5032082;28;20021;-62
2023/09/22 00:04:35;;;;;;;5.75;1.25;;;;;;;;;;5032365;28;20259;-62
2023/09/22 00:07:01;;;;;;;5.90;1.33;;;;;;;;;;5032510;28;20022;-62
2023/09/22 00:09:27;;;;;;;3.17;1.30;;;;;;;;;;5033572;28;20028;-62
2023/09/22 00:11:52;;;;;;;4.25;1.42;;;;;;;;;;5035957;28;20038;-63
2023/09/22 00:14:17;;;;;;;3.33;1.33;;;;;;;;;;5035680;28;20053;-62
2023/09/22 00:16:42;;;;;;;2.88;1.10;;;;;;;;;;5036053;28;20258;-62
2023/09/22 00:19:08;;;;;;;5.40;1.47;;;;;;;;;;5035871;28;20029;-62
2023/09/22 00:21:34;;;;;;;3.00;1.13;;;;;;;;;;5035508;28;20361;-62
2023/09/22 00:23:59;;;;;;;2.78;1.42;;;;;;;;;;5036031;28;20028;-62
2023/09/22 00:26:25;;;;;;;4.80;1.47;;;;;;;;;;5035543;28;20029;-62
2023/09/22 00:28:50;;;;;;;4.57;1.10;;;;;;;;;;5035580;28;20346;-62
2023/09/22 00:31:15;;;;;;;2.33;1.27;;;;;;;;;;5035514;28;20021;-62
2023/09/22 00:33:40;;;;;;;4.43;1.60;;;;;;;;;;5035385;28;20263;-63
2023/09/22 00:36:06;;;;;;;3.75;1.30;;;;;;;;;;5035355;28;20048;-62
2023/09/22 00:38:31;;;;;;;8.93;1.50;;;;;;;;;;5035518;28;20075;-62
2023/09/22 00:40:56;;;;;;;5.43;1.57;;;;;;;;;;5035145;28;20025;-62
2023/09/22 00:43:21;;;;;;;3.73;1.20;;;;;;;;;;5035647;28;20473;-62
2023/09/22 00:45:49;;;;;;;5.78;1.67;;;;;;;;;;5035526;28;20277;-62
2023/09/22 00:48:19;;;;;;;7.07;1.30;;;;;;;;;;5035164;28;20024;-63
2023/09/22 00:50:45;;;;;;;3.38;1.17;;;;;;;;;;5035511;28;20110;-62
2023/09/22 00:53:11;;;;;;;4.75;1.42;;;;;;;;;;5035373;28;20064;-66
2023/09/22 00:55:36;;;;;;;3.92;1.10;;;;;;;;;;5035073;28;20032;-66
2023/09/22 00:58:02;;;;;;;7.93;1.65;;;;;;;;;;5035154;28;20025;-67
2023/09/22 01:00:27;;;;;;;5.93;1.42;;;;;;;;;;5034918;28;20040;-66
2023/09/22 01:02:52;;;;;;;3.20;1.30;;;;;;;;;;5034991;28;20021;-66
2023/09/22 01:05:18;;;;;;;2.42;1.17;;;;;;;;;;5034986;28;20017;-66
2023/09/22 01:07:44;;;;;;;6.43;1.57;;;;;;;;;;5034796;28;20018;-66
2023/09/22 01:10:10;;;;;;;2.05;1.05;;;;;;;;;;5035023;28;20266;-67
2023/09/22 01:12:35;;;;;;;9.23;1.23;;;;;;;;;;5017159;28;20108;-66
2023/09/22 01:15:00;;;;;;;2.72;1.30;;;;;;;;;;5034431;28;20033;-66
2023/09/22 01:17:26;;;;;;;3.63;1.37;;;;;;;;;;5034798;28;20029;-66
2023/09/22 01:19:51;;;;;;;4.18;1.30;;;;;;;;;;5034641;28;20076;-66
2023/09/22 01:22:16;;;;;;;2.17;1.00;;;;;;;;;;5034113;28;20013;-66
2023/09/22 01:24:41;;;;;;;4.80;1.00;;;;;;;;;;5034509;28;20140;-66
2023/09/22 01:27:08;;;;;;;4.47;1.10;;;;;;;;;;5034690;28;20018;-66
2023/09/22 01:29:33;;;;;;;3.88;1.30;;;;;;;;;;5034493;28;20363;-66
2023/09/22 01:31:58;;;;;;;5.17;1.30;;;;;;;;;;5034236;28;20056;-66
2023/09/22 01:34:24;;;;;;;4.13;1.53;;;;;;;;;;5034591;28;20031;-66
2023/09/22 01:36:49;;;;;;;2.63;1.10;;;;;;;;;;5034217;28;20345;-66
2023/09/22 01:39:16;;;;;;;3.00;1.08;;;;;;;;;;5034639;28;20027;-66
2023/09/22 01:41:41;;;;;;;3.50;1.48;;;;;;;;;;5034215;28;20025;-66
2023/09/22 01:44:07;;;;;;;7.78;1.50;;;;;;;;;;5034198;28;20083;-66
2023/09/22 01:46:32;;;;;;;9.07;1.80;;;;;;;;;;5034447;28;20032;-66
2023/09/22 01:48:57;;;;;;;3.60;1.67;;;;;;;;;;5034002;28;20013;-66
2023/09/22 01:51:23;;;;;;;6.30;1.57;;;;;;;;;;5034198;28;20263;-67
2023/09/22 01:53:48;;;;;;;8.88;1.55;;;;;;;;;;5033760;28;20261;-66
2023/09/22 01:56:14;;;;;;;3.60;1.40;;;;;;;;;;5034089;28;20021;-66
2023/09/22 01:58:39;;;;;;;6.17;1.53;;;;;;;;;;5033792;28;20281;-66
2023/09/22 02:01:04;;;;;;;3.43;1.23;;;;;;;;;;5033900;28;20033;-66
2023/09/22 02:03:30;;;;;;;2.90;1.10;;;;;;;;;;5034199;28;20263;-62
2023/09/22 02:05:55;;;;;;;1.83;1.23;;;;;;;;;;5033700;28;20029;-62
2023/09/22 02:08:20;;;;;;;4.38;1.25;;;;;;;;;;5034026;28;20377;-62
2023/09/22 02:10:45;;;;;;;5.30;1.50;;;;;;;;;;5033632;28;20032;-63
2023/09/22 02:13:10;;;;;;;2.27;1.13;;;;;;;;;;5033709;28;20025;-62
2023/09/22 02:15:36;;;;;;;3.43;1.30;;;;;;;;;;5033581;28;20013;-62
2023/09/22 02:18:01;;;;;;;6.85;1.52;;;;;;;;;;5033640;28;20388;-63
2023/09/22 02:20:27;;;;;;;2.45;1.20;;;;;;;;;;5033473;28;20028;-62
2023/09/22 02:22:55;;;;;;;8.73;1.53;;;;;;;;;;5033386;28;20021;-63
2023/09/22 02:25:21;;;;;;;4.03;1.40;;;;;;;;;;5033469;28;20619;-62
2023/09/22 02:27:51;;;;;;;5.93;1.75;;;;;;;;;;5033503;28;20024;-63
2023/09/22 02:30:16;;;;;;;6.28;1.40;;;;;;;;;;5033285;28;20025;-63
2023/09/22 02:32:43;;;;;;;2.25;1.10;;;;;;;;;;5031986;28;20041;-63
2023/09/22 02:35:09;;;;;;;4.40;1.20;;;;;;;;;;5033345;28;20025;-62
2023/09/22 02:37:34;;;;;;;4.47;1.52;;;;;;;;;;5033494;28;20104;-62
2023/09/22 02:39:59;;;;;;;6.93;1.75;;;;;;;;;;5033103;28;20088;-63
2023/09/22 02:42:24;;;;;;;3.33;1.38;;;;;;;;;;5033023;28;20063;-62
2023/09/22 02:44:50;;;;;;;4.07;1.23;;;;;;;;;;5033205;28;20021;-63
2023/09/22 02:47:15;;;;;;;2.73;1.57;;;;;;;;;;5032814;28;20294;-62
2023/09/22 02:49:41;;;;;;;12.88;1.20;;;;;;;;;;5032717;28;20266;-62
2023/09/22 02:52:06;;;;;;;4.47;1.50;;;;;;;;;;5033012;28;20087;-62
2023/09/22 02:54:32;;;;;;;3.47;1.30;;;;;;;;;;5032625;28;20033;-63
2023/09/22 02:56:57;;;;;;;2.67;1.35;;;;;;;;;;5031332;28;20017;-63
2023/09/22 02:59:22;;;;;;;6.33;1.17;;;;;;;;;;5032860;28;20021;-62
2023/09/22 03:01:48;;;;;;;4.57;1.45;;;;;;;;;;5032819;28;20612;-62
2023/09/22 03:04:13;;;;;;;6.70;1.58;;;;;;;;;;5032918;28;20060;-62
2023/09/22 03:06:39;;;;;;;12.65;1.48;;;;;;;;;;5033005;28;20026;-62
2023/09/22 03:09:06;;;;;;;3.83;1.10;;;;;;;;;;5032891;28;20025;-62
2023/09/22 03:11:31;;;;;;;6.53;1.20;;;;;;;;;;5032470;28;20270;-62
2023/09/22 03:13:57;;;;;;;2.38;1.30;;;;;;;;;;5032910;28;20159;-66
2023/09/22 03:16:22;;;;;;;4.47;1.13;;;;;;;;;;5033055;28;20079;-66
2023/09/22 03:18:49;;;;;;;3.20;1.40;;;;;;;;;;5032906;28;20493;-66
2023/09/22 03:21:19;;;;;;;2.45;0.85;;;;;;;;;;5032873;28;20032;-66
2023/09/22 03:23:46;;;;;;;5.68;1.02;;;;;;;;;;5032453;28;20025;-66
2023/09/22 03:26:11;;;;;;;2.78;1.20;;;;;;;;;;5032958;28;20029;-66
2023/09/22 03:28:37;;;;;;;4.17;1.23;;;;;;;;;;5032626;28;20420;-66
2023/09/22 03:31:03;;;;;;;2.10;1.20;;;;;;;;;;5032469;28;20060;-66
2023/09/22 03:33:28;;;;;;;5.05;1.20;;;;;;;;;;5032205;28;20081;-66
2023/09/22 03:35:53;;;;;;;3.10;1.33;;;;;;;;;;5032418;28;20029;-66
2023/09/22 03:38:19;;;;;;;10.13;1.20;;;;;;;;;;5032069;28;20456;-66
2023/09/22 03:40:44;;;;;;;1.33;0.87;;;;;;;;;;5032779;28;20029;-66
2023/09/22 03:43:09;;;;;;;2.20;1.30;;;;;;;;;;5032900;28;20295;-66
2023/09/22 03:45:34;;;;;;;5.20;1.27;;;;;;;;;;5036019;28;20104;-66
2023/09/22 03:48:00;;;;;;;4.43;1.53;;;;;;;;;;5036364;28;20026;-66
2023/09/22 03:50:25;;;;;;;2.28;1.25;;;;;;;;;;5036331;28;20267;-66
2023/09/22 03:52:50;;;;;;;1.65;1.00;;;;;;;;;;5036362;28;20556;-67
2023/09/22 03:55:16;;;;;;;1.58;1.05;;;;;;;;;;5036354;28;20025;-66
2023/09/22 03:57:41;;;;;;;5.00;1.13;;;;;;;;;;5036062;28;20446;-66
2023/09/22 04:00:17;;;;;;;6.80;1.03;;;;;;;;;;5036077;28;20282;-66
2023/09/22 04:02:42;;;;;;;22.48;1.35;;;;;;;;;;5036263;28;20444;-67
2023/09/22 04:05:08;;;;;;;3.47;1.08;;;;;;;;;;5036125;28;20131;-66
2023/09/22 04:07:33;;;;;;;2.38;1.17;;;;;;;;;;5036101;28;20134;-66
2023/09/22 04:09:58;;;;;;;2.53;1.00;;;;;;;;;;5036234;28;20152;-66
2023/09/22 04:12:24;;;;;;;2.27;1.10;;;;;;;;;;5036053;28;20086;-67
2023/09/22 04:14:49;;;;;;;2.97;1.20;;;;;;;;;;5035781;28;20018;-67
2023/09/22 04:17:14;;;;;;;1.37;0.87;;;;;;;;;;5036235;28;20049;-66
2023/09/22 04:19:39;;;;;;;2.90;0.93;;;;;;;;;;5035427;28;20458;-66
2023/09/22 04:22:07;;;;;;;2.63;1.20;;;;;;;;;;5035708;28;20030;-66
2023/09/22 04:24:32;;;;;;;4.50;1.17;;;;;;;;;;5035632;28;20120;-63
2023/09/22 04:27:01;;;;;;;2.85;1.30;;;;;;;;;;5035615;28;20053;-62
2023/09/22 04:29:27;;;;;;;4.30;1.30;;;;;;;;;;5035600;28;20055;-62
2023/09/22 04:31:52;;;;;;;4.03;0.90;;;;;;;;;;5035411;28;20045;-62
2023/09/22 04:34:19;;;;;;;5.95;1.17;;;;;;;;;;5035270;28;20266;-62
2023/09/22 04:36:44;;;;;;;1.88;0.75;;;;;;;;;;5034683;28;20041;-62
2023/09/22 04:39:10;;;;;;;1.23;0.93;;;;;;;;;;5035634;28;20029;-62
2023/09/22 04:41:35;;;;;;;4.03;1.15;;;;;;;;;;5035813;28;20271;-62
2023/09/22 04:44:02;;;;;;;1.65;0.98;;;;;;;;;;5035808;28;20017;-62
2023/09/22 04:46:27;;;;;;;4.93;0.80;;;;;;;;;;5036023;28;20518;-63
2023/09/22 04:48:54;;;;;;;5.23;1.00;;;;;;;;;;5035748;28;20096;-63
2023/09/22 04:51:19;;;;;;;5.40;1.23;;;;;;;;;;5035591;28;20247;-62
2023/09/22 04:53:45;;;;;;;3.90;0.87;;;;;;;;;;5035885;28;20044;-62
2023/09/22 04:56:10;;;;;;;6.87;1.07;;;;;;;;;;5034586;28;20254;-62
2023/09/22 04:58:38;;;;;;;3.75;0.90;;;;;;;;;;5035558;28;20023;-62
2023/09/22 05:01:03;;;;;;;2.53;1.00;;;;;;;;;;5035627;28;20048;-62
2023/09/22 05:03:29;;;;;;;3.30;0.98;;;;;;;;;;5035466;28;20443;-62
2023/09/22 05:05:54;;;;;;;1.20;0.80;;;;;;;;;;5035492;28;20469;-62
2023/09/22 05:08:20;;;;;;;7.70;0.95;;;;;;;;;;5035420;28;20071;-62
2023/09/22 05:10:48;;;;;;;3.80;1.17;;;;;;;;;;5035383;28;20022;-62
2023/09/22 05:13:15;;;;;;;2.13;0.82;;;;;;;;;;5035522;28;20022;-62
2023/09/22 05:15:41;;;;;;;8.27;1.30;;;;;;;;;;5035494;28;20021;-62
2023/09/22 05:18:07;;;;;;;0.80;0.80;;;;;;;;;;5035437;28;20045;-62
2023/09/22 05:20:32;;;;;;;2.85;1.17;;;;;;;;;;5035355;28;20461;-63
2023/09/22 05:22:57;;;;;;;7.63;1.38;;;;;;;;;;5035133;28;20469;-62
2023/09/22 05:25:23;;;;;;;5.80;1.10;;;;;;;;;;5035044;28;20052;-62
2023/09/22 05:27:48;;;;;;;3.08;0.70;;;;;;;;;;5035277;28;20025;-62
2023/09/22 05:30:14;;;;;;;3.95;0.90;;;;;;;;;;5034981;28;20177;-62
2023/09/22 05:32:41;;;;;;;2.42;0.95;;;;;;;;;;5034776;28;20124;-62
2023/09/22 05:35:06;;;;;;;2.38;0.77;;;;;;;;;;5034883;28;20033;-66
2023/09/22 05:37:31;;;;;;;3.95;0.80;;;;;;;;;;5034724;28;20032;-66
2023/09/22 05:39:56;;;;;;;3.43;1.23;;;;;;;;;;5034741;28;20034;-66
2023/09/22 05:42:22;;;;;;;2.67;0.90;;;;;;;;;;5034769;28;20025;-66
2023/09/22 05:44:47;;;;;;;2.67;0.90;;;;;;;;;;5034693;28;20254;-66
2023/09/22 05:47:12;;;;;;;4.07;0.90;;;;;;;;;;5034722;28;20022;-66
2023/09/22 05:49:37;;;;;;;6.28;1.05;;;;;;;;;;5034827;28;20369;-66
2023/09/22 05:52:03;;;;;;;3.33;1.20;;;;;;;;;;5034578;28;20045;-66
2023/09/22 05:54:29;;;;;;;4.20;0.90;;;;;;;;;;5034431;28;20028;-66
2023/09/22 05:56:54;;;;;;;2.30;0.80;;;;;;;;;;5034524;28;20033;-66
2023/09/22 05:59:21;;;;;;;4.20;0.88;;;;;;;;;;5034624;28;20330;-66
2023/09/22 06:01:47;;;;;;;2.05;0.82;;;;;;;;;;5034545;28;20354;-66
2023/09/22 06:04:13;;;;;;;3.85;0.98;;;;;;;;;;5034385;28;20063;-66
2023/09/22 06:06:38;;;;;;;3.38;1.10;;;;;;;;;;5034334;28;20021;-66
2023/09/22 06:09:10;;;;;;;4.87;1.10;;;;;;;;;;5034233;28;20436;-66
2023/09/22 06:11:35;;;;;;;;;;;;;;;;;;5034864;28;20485;-66
2023/09/22 06:14:01;;;;;;;3.42;1.08;;;;;;;;;;5034342;28;20383;-66
2023/09/22 06:16:27;;;;;;;7.45;1.10;;;;;;;;;;5034338;28;20373;-66
2023/09/22 06:18:53;;;;;;;4.15;0.90;;;;;;;;;;5034311;28;20022;-66
2023/09/22 06:21:19;;;;;;;4.25;1.17;;;;;;;;;;5034151;28;20036;-66
2023/09/22 06:23:44;;;;;;;5.80;1.30;;;;;;;;;;5034038;28;20021;-66
2023/09/22 06:26:10;;;;;;;3.07;1.00;;;;;;;;;;5033922;28;20342;-67
2023/09/22 06:28:35;;;;;;;3.33;0.98;;;;;;;;;;5033812;28;20748;-66
2023/09/22 06:31:01;;;;;;;3.03;1.05;;;;;;;;;;5033765;28;20096;-66
2023/09/22 06:33:27;;;;;;;1.88;0.90;;;;;;;;;;5033634;28;20524;-66
2023/09/22 06:36:00;;;;;;;2.53;1.02;;;;;;;;;;5034010;28;20029;-66
2023/09/22 06:38:26;;;;;;;6.20;1.10;;;;;;;;;;5033654;28;20025;-66
2023/09/22 06:40:55;;;;;;;2.23;0.93;;;;;;;;;;5033841;28;20033;-66
2023/09/22 06:43:23;;;;;;;1.48;0.70;;;;;;;;;;5033968;28;20599;-62
2023/09/22 06:45:51;;;;;;;1.30;0.80;;;;;;;;;;5033812;28;20377;-62
2023/09/22 06:48:17;;;;;;;2.67;1.05;;;;;;;;;;5033820;28;20025;-63
2023/09/22 06:50:42;;;;;;;4.60;0.93;;;;;;;;;;5033808;28;20031;-63
2023/09/22 06:53:07;;;;;;;2.90;1.37;;;;;;;;;;5033508;28;20029;-62
2023/09/22 06:55:33;;;;;;;3.70;0.87;;;;;;;;;;5033466;28;20021;-62
2023/09/22 06:58:05;;;;;;;1.48;1.02;;;;;;;;;;5015747;28;20254;-63
2023/09/22 07:00:31;;;;;;;5.75;1.10;;;;;;;;;;5033610;28;20025;-62
2023/09/22 07:02:56;;;;;;;2.97;1.40;;;;;;;;;;5033341;28;20017;-62
2023/09/22 07:05:21;;;;;;;1.33;0.85;;;;;;;;;;5033595;28;20028;-62
2023/09/22 07:07:50;;;;;;;9.13;1.30;;;;;;;;;;5033430;28;20428;-62
2023/09/22 07:10:15;;;;;;;2.13;1.00;;;;;;;;;;5033388;28;20021;-62
2023/09/22 07:12:41;;;;;;;3.47;0.73;;;;;;;;;;5033256;28;20030;-62
2023/09/22 07:15:07;;;;;;;2.60;0.98;;;;;;;;;;5033486;28;20420;-62
2023/09/22 07:17:33;;;;;;;4.32;1.20;;;;;;;;;;5033178;28;20078;-62
2023/09/22 07:19:58;;;;;;;5.45;1.33;;;;;;;;;;5038368;28;20021;-63
2023/09/22 07:22:24;;;;;;;4.57;2.03;;;;;;;;;;5040037;28;20021;-63
2023/09/22 07:24:52;;;;;;;13.70;3.00;;;;;;;;;;5039868;28;20024;-62
2023/09/22 07:27:17;;;;;;;7.13;2.28;;;;;;;;;;5039992;28;20711;-62
2023/09/22 07:29:43;;;;;;;5.25;2.13;;;;;;;;;;5039695;28;20028;-63
2023/09/22 07:32:08;;;;;;;4.68;1.50;;;;;;;;;;5039644;28;20142;-62
2023/09/22 07:34:33;;;;;;;5.07;1.90;;;;;;;;;;5039920;28;20022;-62
2023/09/22 07:36:59;;;;;;;11.45;2.75;;;;;;;;;;5039900;28;20092;-63
2023/09/22 07:39:24;;;;;;;6.25;2.20;;;;;;;;;;5039618;28;20021;-62
2023/09/22 07:41:49;;;;;;;9.47;2.30;;;;;;;;;;5039575;28;20025;-62
2023/09/22 07:44:18;;;;;;;7.03;2.23;;;;;;;;;;5039598;28;20036;-63
2023/09/22 07:46:43;;;;;;;7.03;2.17;;;;;;;;;;5039845;28;20092;-63
2023/09/22 07:49:08;;;;;;;9.87;2.70;;;;;;;;;;5039560;28;20052;-63
2023/09/22 07:51:34;;;;;;;4.30;1.80;;;;;;;;;;5039522;28;20261;-63
2023/09/22 07:53:59;;;;;;;5.82;1.95;;;;;;;;;;5039851;28;20018;-66
2023/09/22 07:56:24;;;;;;;5.13;1.90;;;;;;;;;;5039432;28;20025;-66
2023/09/22 07:58:49;;;;;;;4.77;1.73;;;;;;;;;;5039814;28;20087;-66
2023/09/22 08:01:16;;;;;;;3.10;1.40;;;;;;;;;;5039361;28;20275;-66
2023/09/22 08:03:43;;;;;;;4.95;1.35;;;;;;;;;;5039653;28;20473;-66
2023/09/22 08:06:08;;;;;;;5.13;1.40;;;;;;;;;;5039622;28;20024;-66
2023/09/22 08:08:34;;;;;;;2.72;1.40;;;;;;;;;;5039319;28;20021;-66
2023/09/22 08:10:59;;;;;;;6.88;1.42;;;;;;;;;;5039576;28;20075;-67
2023/09/22 08:13:25;;;;;;;3.38;1.90;;;;;;;;;;5039569;28;20021;-66
2023/09/22 08:15:51;;;;;;;8.82;1.70;;;;;;;;;;5039566;28;20024;-66
2023/09/22 08:18:16;;;;;;;5.35;1.90;;;;;;;;;;5039344;28;20088;-66
2023/09/22 08:20:41;;;;;;;12.53;2.00;;;;;;;;;;5039438;28;20117;-66
2023/09/22 08:23:07;;;;;;;7.10;1.70;;;;;;;;;;5039211;28;20263;-66
2023/09/22 08:25:32;;;;;;;7.32;1.48;;;;;;;;;;5039482;28;20029;-66
2023/09/22 08:27:58;;;;;;;7.95;2.38;;;;;;;;;;5039182;28;20017;-66
2023/09/22 08:30:24;;;;;;;9.18;1.98;;;;;;;;;;5038200;28;20389;-66
2023/09/22 08:32:49;;;;;;;11.32;2.05;;;;;;;;;;5035983;28;20041;-66
2023/09/22 08:35:17;;;;;;;8.68;2.05;;;;;;;;;;5036292;28;20026;-66
2023/09/22 08:37:43;;;;;;;4.72;1.70;;;;;;;;;;5036240;28;20377;-66
2023/09/22 08:40:09;;;;;;;8.65;1.77;;;;;;;;;;5035791;28;20017;-66
2023/09/22 08:42:35;;;;;;;6.47;1.60;;;;;;;;;;5036141;28;20045;-66
2023/09/22 08:45:00;;;;;;;11.73;2.05;;;;;;;;;;5035760;28;20476;-66
2023/09/22 08:47:26;;;;;;;8.52;2.55;;;;;;;;;;5036073;28;20029;-66
2023/09/22 08:49:52;;;;;;;7.18;1.67;;;;;;;;;;5035867;28;20374;-66
2023/09/22 08:52:17;;;;;;;7.63;2.10;;;;;;;;;;5035970;28;20030;-66
2023/09/22 08:54:45;;;;;;;9.47;2.27;;;;;;;;;;5035680;28;20100;-66
2023/09/22 08:57:12;;;;;;;8.00;1.92;;;;;;;;;;5035874;28;20496;-66
2023/09/22 08:59:38;;;;;;;7.35;2.10;;;;;;;;;;5035800;28;20462;-66
2023/09/22 09:02:04;;;;;;;7.40;1.90;;;;;;;;;;5035700;28;20496;-66
2023/09/22 09:04:39;;;;;;;3.20;1.27;;;;;;;;;;5035538;28;20017;-62
2023/09/22 09:07:04;;;;;;;7.78;1.63;;;;;;;;;;5035707;28;20021;-63
2023/09/22 09:09:40;;;;;;;7.30;1.52;;;;;;;;;;5035388;28;20079;-63
2023/09/22 09:12:08;;;;;;;2.80;1.20;;;;;;;;;;5035339;28;20028;-63
2023/09/22 09:14:33;;;;;;;4.38;1.15;;;;;;;;;;5035218;28;20033;-63
2023/09/22 09:16:58;;;;;;;4.83;1.13;;;;;;;;;;5035250;28;20033;-62
2023/09/22 09:19:26;;;;;;;5.00;0.80;;;;;;;;;;5035314;28;20034;-63
2023/09/22 09:22:05;;;;;;;8.50;1.20;;;;;;;;;;5034989;28;20097;-63
2023/09/22 09:24:31;;;;;;;11.43;2.17;;;;;;;;;;5035035;28;20022;-63
2023/09/22 09:26:56;;;;;;;4.82;1.40;;;;;;;;;;5035021;28;20025;-63
2023/09/22 09:29:31;;;;;;;4.00;0.90;;;;;;;;;;5035177;28;20028;-63
2023/09/22 09:32:01;;;;;;;5.55;0.93;;;;;;;;;;5034942;28;20302;-63
2023/09/22 09:34:39;;;;;;;3.70;0.95;;;;;;;;;;5034998;28;20108;-63
2023/09/22 09:37:14;;;;;;;6.70;1.10;;;;;;;;;;5034921;28;20477;-63
2023/09/22 09:39:49;;;;;;;8.43;1.00;;;;;;;;;;5034814;28;20117;-63
2023/09/22 09:42:17;;;;;;;2.30;0.85;;;;;;;;;;5034400;28;20381;-63
2023/09/22 09:44:47;;;;;;;7.22;1.10;;;;;;;;;;5034674;28;20075;-63
2023/09/22 09:47:17;;;;;;;7.53;1.00;;;;;;;;;;5034932;28;20491;-63
2023/09/22 09:49:43;;;;;;;3.97;0.90;;;;;;;;;;5034613;28;20014;-63
2023/09/22 09:52:09;;;;;;;2.90;0.90;;;;;;;;;;5034806;28;20032;-63
2023/09/22 09:54:37;;;;;;;5.28;1.00;;;;;;;;;;5034481;28;20025;-63
2023/09/22 09:57:04;;;;;;;8.85;1.15;;;;;;;;;;5034432;28;20053;-64
2023/09/22 09:59:29;;;;;;;5.53;0.98;;;;;;;;;;5034372;28;20021;-64
2023/09/22 10:01:55;;;;;;;4.73;1.13;;;;;;;;;;5034350;28;20028;-63
2023/09/22 10:04:20;;;;;;;6.30;1.07;;;;;;;;;;5034431;28;20251;-63
2023/09/22 10:06:47;;;;;;;6.18;1.20;;;;;;;;;;5034192;28;20603;-63
2023/09/22 10:09:13;;;;;;;6.53;1.27;;;;;;;;;;5034244;28;20024;-63
2023/09/22 10:11:38;;;;;;;7.05;1.38;;;;;;;;;;5034442;28;20029;-63
2023/09/22 10:14:04;;;;;;;6.53;1.42;;;;;;;;;;5034269;28;20029;-66
2023/09/22 10:16:29;;;;;;;6.90;0.93;;;;;;;;;;5034124;28;20026;-66
2023/09/22 10:18:56;;;;;;;4.95;0.85;;;;;;;;;;5034334;28;20030;-66
2023/09/22 10:21:34;;;;;;;6.70;1.75;;;;;;;;;;5034205;28;20421;-66
2023/09/22 10:24:19;;;;;;;9.10;1.65;;;;;;;;;;5034234;28;20592;-66
2023/09/22 10:26:53;;;;;;;4.25;1.10;;;;;;;;;;5034168;28;20028;-66
2023/09/22 10:29:36;;;;;;;5.97;1.15;;;;;;;;;;5034090;28;20374;-67
2023/09/22 10:34:51;;;;;;;7.25;1.13;;;;;;;;;;5033889;28;20083;-66
2023/09/22 10:37:18;;;;;;;5.32;0.70;;;;;;;;;;5033151;28;20037;-66
2023/09/22 10:39:52;;;;;;;3.97;0.90;;;;;;;;;;5013968;28;20032;-66
2023/09/22 10:42:18;;;;;;;6.60;0.90;;;;;;;;;;5013869;28;20053;-67
2023/09/22 10:45:02;;;;;;;5.07;1.00;;;;;;;;;;5028615;28;20067;-66
2023/09/22 10:47:47;;;;;;;5.00;1.02;;;;;;;;;;5032942;28;20108;-66
2023/09/22 10:50:12;;;;;;;5.15;1.10;;;;;;;;;;5033541;28;20358;-67
2023/09/22 10:52:38;;;;;;;7.85;1.17;;;;;;;;;;5033753;28;20083;-67
2023/09/22 10:55:05;;;;;;;4.30;1.08;;;;;;;;;;5032960;28;20017;-67
2023/09/22 10:57:31;;;;;;;2.97;0.85;;;;;;;;;;5033685;28;20489;-66
2023/09/22 10:59:56;;;;;;;3.58;0.80;;;;;;;;;;5032994;28;20030;-66
2023/09/22 11:02:22;;;;;;;3.75;0.70;;;;;;;;;;5032854;28;20037;-66
2023/09/22 11:04:48;;;;;;;5.38;1.38;;;;;;;;;;5015255;28;20473;-66
2023/09/22 11:07:29;;;;;;;6.82;0.98;;;;;;;;;;5033152;28;20029;-66
2023/09/22 11:09:54;;;;;;;2.88;0.80;;;;;;;;;;5032866;28;20132;-66
2023/09/22 11:12:20;;;;;;;3.60;1.10;;;;;;;;;;5032910;28;20100;-67
2023/09/22 11:14:46;;;;;;;4.13;0.80;;;;;;;;;;5027750;28;20167;-66
2023/09/22 11:17:11;;;;;;;4.18;1.27;;;;;;;;;;5024848;28;20075;-66
2023/09/22 11:19:48;;;;;;;3.30;0.87;;;;;;;;;;5032246;28;20029;-66
2023/09/22 11:22:13;;;;;;;7.00;1.13;;;;;;;;;;5032339;28;20071;-66
2023/09/22 11:24:39;;;;;;;6.90;1.00;;;;;;;;;;5032546;28;20017;-66
2023/09/22 11:27:05;;;;;;;6.22;0.85;;;;;;;;;;5032297;28;20018;-66
2023/09/22 11:29:31;;;;;;;8.30;0.82;;;;;;;;;;5031666;28;20060;-66
2023/09/22 11:31:57;;;;;;;7.35;1.25;;;;;;;;;;5032057;28;20081;-66
2023/09/22 11:34:23;;;;;;;8.38;1.25;;;;;;;;;;5014945;28;20059;-67
2023/09/22 11:36:52;;;;;;;11.00;0.80;;;;;;;;;;5032160;28;20028;-66
2023/09/22 11:39:25;;;;;;;1.95;0.73;;;;;;;;;;5032810;28;20473;-66
2023/09/22 11:41:50;;;;;;;4.97;1.05;;;;;;;;;;5032324;28;20116;-66
2023/09/22 11:44:15;;;;;;;4.53;1.30;;;;;;;;;;5032333;28;20029;-66
2023/09/22 11:46:44;;;;;;;2.17;0.80;;;;;;;;;;5032232;28;20266;-66
2023/09/22 11:49:12;;;;;;;3.30;0.73;;;;;;;;;;5032186;28;20025;-66
2023/09/22 11:51:40;;;;;;;4.78;1.15;;;;;;;;;;5024489;28;20030;-66
2023/09/22 11:54:05;;;;;;;4.53;1.10;;;;;;;;;;5032448;28;20057;-66
2023/09/22 11:56:31;;;;;;;4.70;0.90;;;;;;;;;;5032165;28;20065;-66
2023/09/22 11:59:05;;;;;;;6.63;1.42;;;;;;;;;;5030986;28;20041;-66
2023/09/22 12:01:30;;;;;;;5.03;1.15;;;;;;;;;;5031718;28;20053;-66
2023/09/22 12:03:55;;;;;;;8.47;1.10;;;;;;;;;;5032507;28;20045;-66
2023/09/22 12:06:21;;;;;;;6.60;1.07;;;;;;;;;;5017425;28;20473;-66
2023/09/22 12:08:46;;;;;;;4.03;0.88;;;;;;;;;;5035818;28;20033;-66
2023/09/22 12:11:11;;;;;;;6.97;1.17;;;;;;;;;;5035556;28;20029;-66
2023/09/22 12:13:36;;;;;;;3.90;1.17;;;;;;;;;;5035634;28;20021;-66
2023/09/22 12:16:01;;;;;;;7.40;1.20;;;;;;;;;;5034986;28;20386;-66
2023/09/22 12:18:27;;;;;;;2.37;0.90;;;;;;;;;;5035701;28;20033;-66
2023/09/22 12:20:52;;;;;;;7.13;1.10;;;;;;;;;;5036051;28;20033;-66
2023/09/22 12:23:17;;;;;;;7.60;1.00;;;;;;;;;;5035420;28;20262;-66
2023/09/22 12:25:42;;;;;;;5.43;1.07;;;;;;;;;;5035219;28;20022;-75
2023/09/22 12:28:08;;;;;;;4.03;1.07;;;;;;;;;;5035152;28;20440;-76
2023/09/22 12:30:33;;;;;;;5.40;1.00;;;;;;;;;;5034302;28;20332;-75
2023/09/22 12:32:58;;;;;;;6.00;1.70;;;;;;;;;;5035620;28;20452;-72
2023/09/22 12:35:23;;;;;;;10.25;1.45;;;;;;;;;;5035658;28;20028;-76
2023/09/22 12:37:52;;;;;;;5.33;1.00;;;;;;;;;;5017641;28;20461;-76
2023/09/22 12:40:17;;;;;;;5.38;0.88;;;;;;;;;;5017721;28;20440;-76
2023/09/22 12:42:43;;;;;;;13.85;1.65;;;;;;;;;;5035438;28;20013;-75
2023/09/22 12:45:08;;;;;;;3.43;1.20;;;;;;;;;;5035175;28;20468;-76
2023/09/22 12:47:33;;;;;;;3.40;0.90;;;;;;;;;;5035587;28;20770;-67
2023/09/22 12:50:04;;;;;;;4.40;1.13;;;;;;;;;;5035858;28;20362;-67
2023/09/22 12:52:30;;;;;;;7.25;1.05;;;;;;;;;;5035037;28;20052;-67
2023/09/22 12:54:55;;;;;;;8.40;1.08;;;;;;;;;;5035323;28;20064;-67
2023/09/22 12:57:21;;;;;;;8.37;1.27;;;;;;;;;;5035353;28;20037;-67
2023/09/22 12:59:47;;;;;;;5.68;1.00;;;;;;;;;;5035256;28;20837;-67
2023/09/22 13:02:12;;;;;;;9.10;1.35;;;;;;;;;;5034961;28;20108;-67
2023/09/22 13:04:38;;;;;;;6.63;0.90;;;;;;;;;;5035466;28;20457;-67
2023/09/22 13:07:04;;;;;;;8.88;1.00;;;;;;;;;;5035429;28;20022;-67
2023/09/22 13:09:29;;;;;;;6.30;1.10;;;;;;;;;;5034784;28;20397;-67
2023/09/22 13:11:55;;;;;;;3.40;0.80;;;;;;;;;;5035190;28;20021;-67
2023/09/22 13:14:20;;;;;;;3.70;0.70;;;;;;;;;;5034955;28;20029;-67
2023/09/22 13:16:45;;;;;;;6.37;0.93;;;;;;;;;;5033613;28;20290;-67
2023/09/22 13:19:10;;;;;;;9.73;1.27;;;;;;;;;;5034855;28;20266;-67
2023/09/22 13:21:36;;;;;;;2.77;0.83;;;;;;;;;;5034578;28;20048;-67
2023/09/22 13:24:01;;;;;;;6.38;1.08;;;;;;;;;;5034993;28;20282;-67
2023/09/22 13:26:26;;;;;;;4.07;1.00;;;;;;;;;;5034498;28;20021;-67
2023/09/22 13:28:55;;;;;;;9.90;1.17;;;;;;;;;;5039107;28;20083;-67
2023/09/22 13:31:20;;;;;;;3.70;1.00;;;;;;;;;;5034545;28;20116;-67
2023/09/22 13:33:45;;;;;;;5.93;0.82;;;;;;;;;;5034228;28;20154;-67
2023/09/22 13:36:16;;;;;;;5.57;1.20;;;;;;;;;;5034814;28;20029;-67
2023/09/22 13:38:42;;;;;;;8.25;1.25;;;;;;;;;;5034513;28;20270;-67
2023/09/22 13:41:14;;;;;;;7.53;1.27;;;;;;;;;;5034449;28;20496;-67
2023/09/22 13:43:39;;;;;;;;;;;;;;;;;;5035117;28;20377;-62
2023/09/22 13:46:12;;;;;;;4.73;0.93;;;;;;;;;;5034129;28;19909;-63
2023/09/22 13:48:37;;;;;;;4.90;1.35;;;;;;;;;;5034583;28;20022;-62
2023/09/22 13:51:03;;;;;;;2.25;1.05;;;;;;;;;;5034355;28;20037;-63
2023/09/22 13:53:28;;;;;;;4.82;0.88;;;;;;;;;;5034102;28;20022;-63
2023/09/22 13:55:53;;;;;;;5.17;1.00;;;;;;;;;;5034147;28;20051;-62
2023/09/22 13:58:18;;;;;;;6.43;0.90;;;;;;;;;;5034201;28;20492;-64
2023/09/22 14:00:45;;;;;;;3.20;0.90;;;;;;;;;;5033879;28;20021;-63
2023/09/22 14:03:10;;;;;;;3.70;0.85;;;;;;;;;;5034241;28;20421;-62
2023/09/22 14:05:36;;;;;;;7.83;1.20;;;;;;;;;;5033747;28;20013;-63
2023/09/22 14:08:04;;;;;;;4.78;1.05;;;;;;;;;;5034110;28;20488;-63
2023/09/22 14:10:29;;;;;;;1.65;0.75;;;;;;;;;;5033603;28;20049;-62
2023/09/22 14:12:55;;;;;;;3.95;0.90;;;;;;;;;;5033952;28;20060;-62
2023/09/22 14:15:20;;;;;;;6.07;1.10;;;;;;;;;;5034010;28;20088;-62
2023/09/22 14:17:46;;;;;;;2.92;1.05;;;;;;;;;;5033710;28;20537;-63
2023/09/22 14:20:11;;;;;;;2.85;0.88;;;;;;;;;;5033677;28;20462;-62
2023/09/22 14:22:37;;;;;;;4.60;1.10;;;;;;;;;;5033930;28;20030;-63
2023/09/22 14:25:03;;;;;;;5.60;1.17;;;;;;;;;;5033406;28;20025;-62
2023/09/22 14:27:28;;;;;;;4.78;1.23;;;;;;;;;;5033472;28;20036;-63
2023/09/22 14:29:54;;;;;;;10.13;1.10;;;;;;;;;;5033328;28;20017;-63
2023/09/22 14:32:19;;;;;;;6.97;1.30;;;;;;;;;;5033030;28;20056;-62
2023/09/22 14:34:44;;;;;;;5.83;1.20;;;;;;;;;;5016039;28;20385;-62
2023/09/22 14:37:09;;;;;;;3.43;1.00;;;;;;;;;;5033186;28;20037;-63
2023/09/22 14:39:34;;;;;;;4.10;0.90;;;;;;;;;;5033375;28;20029;-62
2023/09/22 14:42:00;;;;;;;6.13;1.00;;;;;;;;;;5033519;28;20033;-62